Carnival Glory — 3FPS9 — position and weather

sailwx.info

Track history (hours):
 
Tides and Currents Weather Stations Pressure Air Temp Water Temp Dewpoint Dewpoint Depression Visibility Wind Speed Wind Dir Waves Ship Positions

Carnival Glory

Operator: Carnival Cruise Lines

Last reported at 2019-Apr-24 22:30 UTC. Time now 2019-Apr-24 22:35 UTC.
Position N 20°29' W 086°59'.

Type: Passenger vessel. MMSI: 357659000.

Date/timePositionNaut miles runAvg speedWind from/ knotsBaromVisibWave heightAir tempDewpointWater temp
2019-Apr-24 22:30N 20°29' W 086°59'0 0.0
2019-Apr-24 22:00N 20°29' W 086°59'0 0.0
2019-Apr-24 21:30N 20°29' W 086°59'0 0.0
2019-Apr-24 21:00N 20°29' W 086°59'0 0.0
2019-Apr-24 20:30N 20°29' W 086°59'0 0.0
2019-Apr-24 20:00N 20°29' W 086°59'0 0.0
2019-Apr-24 19:30N 20°29' W 086°59'0 0.0
2019-Apr-24 19:00N 20°29' W 086°59'0 0.0
2019-Apr-24 18:30N 20°29' W 086°59'0 0.0
2019-Apr-24 18:00N 20°29' W 086°59'0 0.0
2019-Apr-24 17:30N 20°29' W 086°59'0 0.0
2019-Apr-24 17:00N 20°29' W 086°59'61058.9
2019-Apr-24 17:00N 20°24' W 086°54'613.1 120 / 121015.110.8 26.023.127.0
2019-Apr-24 16:30N 20°29' W 086°59'0 0.0
2019-Apr-24 16:00N 20°29' W 086°59'0 0.0
2019-Apr-24 15:30N 20°29' W 086°59'0 0.0
2019-Apr-24 15:00N 20°29' W 086°59'0 0.0
2019-Apr-24 14:30N 20°29' W 086°59'0 0.0
2019-Apr-24 14:00N 20°29' W 086°59'0 0.0
2019-Apr-24 13:30N 20°29' W 086°59'0 0.0
2019-Apr-24 13:00N 20°29' W 086°59'0 0.4
2019-Apr-24 12:30N 20°29' W 086°59'2 3.7
2019-Apr-24 12:00N 20°31' W 086°59'4 8.2
2019-Apr-24 11:30N 20°34' W 086°57'3212.9
2019-Apr-24 09:00N 21°00' W 086°36'4221.2 080 / 171016.810.8 25.022.028.0
2019-Apr-24 07:00N 21°42' W 086°42'19217.5 090 / 181014.810.8 25.022.026.0
2019-Apr-23 20:00N 24°30' W 088°24'9716.2 100 / 171019.210.8 24.021.026.0
2019-Apr-23 14:00N 26°06' W 088°42'15319.2 090 / 201018.810.8 23.019.926.0
2019-Apr-23 06:00N 28°36' W 089°18'4210.6 110 / 61023.410.8 22.018.916.0
2019-Apr-23 02:00N 29°18' W 089°24'2820.6 100 / 131020.810.8 19.015.615.0
2019-Apr-23 00:36N 29°36' W 089°50'415.0
2019-Apr-23 00:22N 29°37' W 089°54'412.1
2019-Apr-23 00:00N 29°40' W 089°58'713.7
2019-Apr-22 23:30N 29°46' W 090°01'714.3
2019-Apr-22 23:00N 29°52' W 089°59'4 8.0
2019-Apr-22 22:30N 29°54' W 089°55'612.5
2019-Apr-22 22:00N 29°57' W 090°01'2 4.3
2019-Apr-22 21:28N 29°56' W 090°04'0 0.0
2019-Apr-22 20:58N 29°56' W 090°04'0 0.0
2019-Apr-22 20:28N 29°56' W 090°04'0 0.0
2019-Apr-22 19:58N 29°56' W 090°04'0 0.0
2019-Apr-22 19:28N 29°56' W 090°04'0 0.0
2019-Apr-22 18:58N 29°56' W 090°04'0 0.0
2019-Apr-22 18:28N 29°56' W 090°04'0 0.0
2019-Apr-22 17:55N 29°56' W 090°04'0 0.0
2019-Apr-22 17:28N 29°56' W 090°04'0 0.0
2019-Apr-22 16:55N 29°56' W 090°04'0 0.0
2019-Apr-22 16:28N 29°56' W 090°04'4 8.4
2019-Apr-22 16:00N 29°54' W 090°00'4135.9 090 / 101022.310.8 20.016.716.0
2019-Apr-22 15:58N 29°56' W 090°04'0 0.0
2019-Apr-22 15:28N 29°56' W 090°04'0 0.0
2019-Apr-22 14:58N 29°56' W 090°04'0 0.0
2019-Apr-22 14:28N 29°56' W 090°04'0 0.0
2019-Apr-22 13:55N 29°56' W 090°04'0 0.0
2019-Apr-22 13:28N 29°56' W 090°04'0 0.0
2019-Apr-22 12:58N 29°56' W 090°04'0 0.0
2019-Apr-22 12:28N 29°56' W 090°04'0 0.0
2019-Apr-22 11:58N 29°56' W 090°04'0 0.1
2019-Apr-22 11:30N 29°56' W 090°04'2 4.4
2019-Apr-22 11:00N 29°57' W 090°01'510.8
2019-Apr-22 10:30N 29°55' W 089°55'3 5.9
2019-Apr-22 10:01N 29°53' W 089°57'5 9.8
2019-Apr-22 09:30N 29°48' W 090°00'510.7
2019-Apr-22 08:59N 29°43' W 089°59'511.4
2019-Apr-22 08:31N 29°38' W 089°56'711.2
2019-Apr-22 07:50N 29°35' W 089°48'512.4
2019-Apr-22 07:25N 29°31' W 089°44'60 9.3
2019-Apr-22 01:00N 28°36' W 089°18'9716.2 090 / 101021.010.8 22.018.918.0
2019-Apr-21 19:00N 27°06' W 088°36'2626.3 110 / 81024.410.8 25.022.026.0
2019-Apr-21 18:00N 26°42' W 088°24'8416.9 080 / 111024.610.8 26.023.127.0
2019-Apr-21 13:00N 25°24' W 087°48'16921.2 010 / 101020.110.8 24.021.025.0
2019-Apr-21 05:00N 22°48' W 086°36'9122.7 350 / 171022.310.8 24.021.028.0
2019-Apr-21 01:00N 21°18' W 086°24'4320.0 010 / 201018.110.8 24.021.028.0
2019-Apr-20 22:52N 20°44' W 086°52'719.9
2019-Apr-20 22:30N 20°38' W 086°56'917.5
2019-Apr-20 22:00N 20°30' W 086°59'2 2.7
2019-Apr-20 21:23N 20°29' W 086°59'0 0.0
2019-Apr-20 20:59N 20°29' W 086°59'0 0.0
2019-Apr-20 20:29N 20°29' W 086°59'0 0.0
2019-Apr-20 19:59N 20°29' W 086°59'0 0.0
2019-Apr-20 19:29N 20°29' W 086°59'0 0.0
2019-Apr-20 18:59N 20°29' W 086°59'0 0.0
2019-Apr-20 18:29N 20°29' W 086°59'0 0.0
2019-Apr-20 17:59N 20°29' W 086°59'0 0.0
2019-Apr-20 17:29N 20°29' W 086°59'0 0.0
2019-Apr-20 16:59N 20°29' W 086°59'0 0.0
2019-Apr-20 16:29N 20°29' W 086°59'0 0.0
2019-Apr-20 15:56N 20°29' W 086°59'0 0.0
2019-Apr-20 15:29N 20°29' W 086°59'613.0
2019-Apr-20 15:00N 20°24' W 086°54'6635.4 010 / 121019.810.8 26.023.126.0
2019-Apr-20 14:59N 20°29' W 086°59'0 0.0
2019-Apr-20 14:29N 20°29' W 086°59'0 0.0
2019-Apr-20 13:59N 20°29' W 086°59'0 0.0
2019-Apr-20 13:29N 20°29' W 086°59'0 0.0
2019-Apr-20 12:59N 20°29' W 086°59'0 0.0
2019-Apr-20 12:29N 20°29' W 086°59'0 0.0
2019-Apr-20 12:01N 20°29' W 086°59'0 0.1
2019-Apr-20 11:31N 20°29' W 086°59'3 5.9
2019-Apr-20 11:01N 20°31' W 086°60'510.2
2019-Apr-20 10:30N 20°36' W 086°57'7313.3
2019-Apr-20 05:00N 21°48' W 086°42'6521.8 340 / 161020.510.8 24.021.026.0
2019-Apr-20 02:00N 22°30' W 087°36'14117.6 330 / 201016.610.8 23.019.926.0
2019-Apr-19 18:00N 24°42' W 088°30'7318.2 310 / 221016.910.8 22.018.926.0
2019-Apr-19 14:00N 25°54' W 088°42'14117.6 300 / 351012.010.8 21.017.825.0
2019-Apr-19 06:00N 28°12' W 089°12'5413.5 270 / 291009.710.8 21.019.423.0
2019-Apr-19 02:00N 29°06' W 089°12'4716.7 200 / 251006.310.8 21.019.416.0
2019-Apr-18 23:10N 29°37' W 089°53'315.2
2019-Apr-18 23:00N 29°38' W 089°56'714.4
2019-Apr-18 22:30N 29°44' W 090°00'713.2
2019-Apr-18 22:00N 29°51' W 089°59'5 9.4
2019-Apr-18 21:30N 29°53' W 089°54'611.6
2019-Apr-18 21:00N 29°56' W 089°60'4 7.1
2019-Apr-18 20:30N 29°56' W 090°04'0 0.0
2019-Apr-18 19:58N 29°56' W 090°04'0 0.0
2019-Apr-18 19:28N 29°56' W 090°04'0 0.0
2019-Apr-18 18:58N 29°56' W 090°04'0 0.0
2019-Apr-18 18:28N 29°56' W 090°04'0 0.0
2019-Apr-18 17:52N 29°56' W 090°04'0 0.0
2019-Apr-18 17:28N 29°56' W 090°04'0 0.0
2019-Apr-18 16:58N 29°56' W 090°04'0 0.0
2019-Apr-18 16:25N 29°56' W 090°04'0 0.0
2019-Apr-18 15:58N 29°56' W 090°04'0 0.0
2019-Apr-18 15:28N 29°56' W 090°04'0 0.0
2019-Apr-18 14:58N 29°56' W 090°04'0 0.0
2019-Apr-18 14:28N 29°56' W 090°04'4 8.5
2019-Apr-18 14:00N 29°54' W 090°00'4126.2 120 / 131009.810.8 22.018.915.0
2019-Apr-18 13:58N 29°56' W 090°04'0 0.0
2019-Apr-18 13:28N 29°56' W 090°04'0 0.0
2019-Apr-18 12:58N 29°56' W 090°04'0 0.0
2019-Apr-18 12:28N 29°56' W 090°04'0 0.0
2019-Apr-18 11:58N 29°56' W 090°04'0 0.0
2019-Apr-18 11:28N 29°56' W 090°04'0 0.0
2019-Apr-18 10:58N 29°56' W 090°04'0 0.0
2019-Apr-18 10:28N 29°56' W 090°04'0 0.3
2019-Apr-18 10:00N 29°57' W 090°04'4 7.7
2019-Apr-18 09:30N 29°56' W 089°59'510.7
2019-Apr-18 09:00N 29°53' W 089°54'4 8.4
2019-Apr-18 08:31N 29°52' W 089°59'610.8
2019-Apr-18 08:00N 29°46' W 090°01'711.4
2019-Apr-18 07:23N 29°40' W 089°58'510.3
2019-Apr-18 06:57N 29°37' W 089°54'511.7
2019-Apr-18 06:30N 29°35' W 089°48'612.6
2019-Apr-18 06:00N 29°31' W 089°43'611.8
2019-Apr-18 05:30N 29°27' W 089°37'510.3
2019-Apr-18 05:00N 29°23' W 089°35'611.6
2019-Apr-18 04:30N 29°21' W 089°29'2710.8
2019-Apr-18 02:00N 28°54' W 089°24'11414.3 090 / 151014.910.8 24.021.015.0
2019-Apr-17 18:00N 27°00' W 089°12'1818.0 130 / 181019.610.8 24.021.025.0
2019-Apr-17 17:00N 26°42' W 089°12'6622.0 130 / 201020.110.8 24.021.025.0
2019-Apr-17 14:00N 25°36' W 089°12'15016.7 120 / 251016.210.8 23.019.927.0
2019-Apr-17 05:00N 23°06' W 089°18'6616.6 090 / 251019.910.8 24.021.026.0
2019-Apr-17 01:00N 22°00' W 089°24'1333.9 090 / 301015.110.8 24.021.026.0
2019-Apr-17 00:36N 21°50' W 089°33'116.3
2019-Apr-17 00:30N 21°48' W 089°34'816.1
2019-Apr-17 00:00N 21°41' W 089°36'815.9
2019-Apr-16 23:30N 21°33' W 089°39'713.3
2019-Apr-16 23:01N 21°27' W 089°42'611.0
2019-Apr-16 22:31N 21°21' W 089°41'1 2.2
2019-Apr-16 21:59N 21°21' W 089°41'0 0.0
2019-Apr-16 21:29N 21°21' W 089°41'0 0.0
2019-Apr-16 20:59N 21°21' W 089°41'0 0.0
2019-Apr-16 20:20N 21°21' W 089°41'0 0.0
2019-Apr-16 19:50N 21°21' W 089°41'0 0.0
2019-Apr-16 19:17N 21°21' W 089°41'0 0.0
2019-Apr-16 18:47N 21°21' W 089°41'0 0.0
2019-Apr-16 18:26N 21°21' W 089°41'0 0.0
2019-Apr-16 17:59N 21°21' W 089°41'0 0.0
2019-Apr-16 17:29N 21°21' W 089°41'0 0.0
2019-Apr-16 16:59N 21°21' W 089°41'0 0.0
2019-Apr-16 16:29N 21°21' W 089°41'0 0.0
2019-Apr-16 15:59N 21°21' W 089°41'0 0.0
2019-Apr-16 15:29N 21°21' W 089°41'0 0.0
2019-Apr-16 14:59N 21°21' W 089°41'0 0.0
2019-Apr-16 14:29N 21°21' W 089°41'510.0
2019-Apr-16 14:00N 21°18' W 089°36'5709.4 090 / 181017.910.8 24.021.026.0
2019-Apr-16 13:59N 21°21' W 089°41'0 0.3
2019-Apr-16 13:30N 21°21' W 089°41'3 6.8
2019-Apr-16 13:00N 21°24' W 089°41'510.4
2019-Apr-16 12:30N 21°29' W 089°39'713.5
2019-Apr-16 12:01N 21°32' W 089°33'816.7
2019-Apr-16 11:30N 21°35' W 089°25'11417.5
2019-Apr-16 05:00N 21°54' W 087°24'7017.5 040 / 221018.710.8 24.021.025.0
2019-Apr-16 01:00N 21°12' W 086°24'4026.7 090 / 91016.7 5.4 24.022.526.0
2019-Apr-15 23:30N 20°42' W 086°53'1020.9
2019-Apr-15 23:00N 20°34' W 086°59'510.5
2019-Apr-15 22:30N 20°29' W 086°59'0 0.0
2019-Apr-15 22:00N 20°29' W 086°59'0 0.0
2019-Apr-15 21:30N 20°29' W 086°59'0 0.0
2019-Apr-15 21:00N 20°29' W 086°59'0 0.0
2019-Apr-15 20:30N 20°29' W 086°59'0 0.0
2019-Apr-15 20:00N 20°29' W 086°59'0 0.0
2019-Apr-15 19:30N 20°29' W 086°59'0 0.0
2019-Apr-15 19:00N 20°29' W 086°59'0 0.0
2019-Apr-15 18:30N 20°29' W 086°59'0 0.0
2019-Apr-15 18:00N 20°29' W 086°59'0 0.0
2019-Apr-15 17:30N 20°29' W 086°59'0 0.0
2019-Apr-15 17:00N 20°29' W 086°59'0 0.0
2019-Apr-15 16:30N 20°29' W 086°59'0 0.0
2019-Apr-15 16:00N 20°29' W 086°59'0 0.0
2019-Apr-15 15:30N 20°29' W 086°59'0 0.0
2019-Apr-15 15:00N 20°29' W 086°59'0 0.0
2019-Apr-15 14:30N 20°29' W 086°59'0 0.0
2019-Apr-15 14:00N 20°29' W 086°59'0 0.0
2019-Apr-15 13:30N 20°29' W 086°59'0 0.0
2019-Apr-15 13:00N 20°29' W 086°59'0 0.0
2019-Apr-15 12:30N 20°29' W 086°59'0 0.4
2019-Apr-15 12:01N 20°29' W 086°59'3 5.8
2019-Apr-15 11:30N 20°32' W 086°59'710.8
2019-Apr-15 10:52N 20°38' W 086°55'7114.5
2019-Apr-15 06:00N 21°48' W 086°48'5517.9 040 / 121018.110.8 24.021.025.0
2019-Apr-15 02:56N 22°26' W 087°30'918.9
2019-Apr-15 02:28N 22°32' W 087°38'918.9
2019-Apr-15 02:00N 22°37' W 087°45'3188.2
2019-Apr-15 02:00N 22°36' W 087°42'1325.4 360 / 301013.710.8 24.021.026.0
2019-Apr-15 01:29N 22°43' W 087°54'918.9
2019-Apr-15 01:00N 22°48' W 088°02'1018.5
2019-Apr-15 00:28N 22°54' W 088°10'1219.3
2019-Apr-14 23:51N 23°06' W 088°12'719.4
2019-Apr-14 23:30N 23°13' W 088°14'1019.4
2019-Apr-14 22:58N 23°23' W 088°16'  
Track history (hours):
 
Tides and Currents Weather Stations Pressure Air Temp Water Temp Dewpoint Dewpoint Depression Visibility Wind Speed Wind Dir Waves Ship Positions

Carnival Glory

Operator: Carnival Cruise Lines

Last reported at 2019-Apr-24 22:30 UTC. Time now 2019-Apr-24 22:35 UTC.
Position N 20°29' W 086°59'.

Type: Passenger vessel. MMSI: 357659000.

Date/timePositionNaut miles runAvg speedWind from/ knotsBaromVisibWave heightAir tempDewpointWater temp
2019-Apr-24 22:30N 20°29' W 086°59'0 0.0
2019-Apr-24 22:00N 20°29' W 086°59'0 0.0
2019-Apr-24 21:30N 20°29' W 086°59'0 0.0
2019-Apr-24 21:00N 20°29' W 086°59'0 0.0
2019-Apr-24 20:30N 20°29' W 086°59'0 0.0
2019-Apr-24 20:00N 20°29' W 086°59'0 0.0
2019-Apr-24 19:30N 20°29' W 086°59'0 0.0
2019-Apr-24 19:00N 20°29' W 086°59'0 0.0
2019-Apr-24 18:30N 20°29' W 086°59'0 0.0
2019-Apr-24 18:00N 20°29' W 086°59'0 0.0
2019-Apr-24 17:30N 20°29' W 086°59'0 0.0
2019-Apr-24 17:00N 20°29' W 086°59'61058.9
2019-Apr-24 17:00N 20°24' W 086°54'613.1 120 / 121015.110.8 26.023.127.0
2019-Apr-24 16:30N 20°29' W 086°59'0 0.0
2019-Apr-24 16:00N 20°29' W 086°59'0 0.0
2019-Apr-24 15:30N 20°29' W 086°59'0 0.0
2019-Apr-24 15:00N 20°29' W 086°59'0 0.0
2019-Apr-24 14:30N 20°29' W 086°59'0 0.0
2019-Apr-24 14:00N 20°29' W 086°59'0 0.0
2019-Apr-24 13:30N 20°29' W 086°59'0 0.0
2019-Apr-24 13:00N 20°29' W 086°59'0 0.4
2019-Apr-24 12:30N 20°29' W 086°59'2 3.7
2019-Apr-24 12:00N 20°31' W 086°59'4 8.2
2019-Apr-24 11:30N 20°34' W 086°57'3212.9
2019-Apr-24 09:00N 21°00' W 086°36'4221.2 080 / 171016.810.8 25.022.028.0
2019-Apr-24 07:00N 21°42' W 086°42'19217.5 090 / 181014.810.8 25.022.026.0
2019-Apr-23 20:00N 24°30' W 088°24'9716.2 100 / 171019.210.8 24.021.026.0
2019-Apr-23 14:00N 26°06' W 088°42'15319.2 090 / 201018.810.8 23.019.926.0
2019-Apr-23 06:00N 28°36' W 089°18'4210.6 110 / 61023.410.8 22.018.916.0
2019-Apr-23 02:00N 29°18' W 089°24'2820.6 100 / 131020.810.8 19.015.615.0
2019-Apr-23 00:36N 29°36' W 089°50'415.0
2019-Apr-23 00:22N 29°37' W 089°54'412.1
2019-Apr-23 00:00N 29°40' W 089°58'713.7
2019-Apr-22 23:30N 29°46' W 090°01'714.3
2019-Apr-22 23:00N 29°52' W 089°59'4 8.0
2019-Apr-22 22:30N 29°54' W 089°55'612.5
2019-Apr-22 22:00N 29°57' W 090°01'2 4.3
2019-Apr-22 21:28N 29°56' W 090°04'0 0.0
2019-Apr-22 20:58N 29°56' W 090°04'0 0.0
2019-Apr-22 20:28N 29°56' W 090°04'0 0.0
2019-Apr-22 19:58N 29°56' W 090°04'0 0.0
2019-Apr-22 19:28N 29°56' W 090°04'0 0.0
2019-Apr-22 18:58N 29°56' W 090°04'0 0.0
2019-Apr-22 18:28N 29°56' W 090°04'0 0.0
2019-Apr-22 17:55N 29°56' W 090°04'0 0.0
2019-Apr-22 17:28N 29°56' W 090°04'0 0.0
2019-Apr-22 16:55N 29°56' W 090°04'0 0.0
2019-Apr-22 16:28N 29°56' W 090°04'4 8.4
2019-Apr-22 16:00N 29°54' W 090°00'4135.9 090 / 101022.310.8 20.016.716.0
2019-Apr-22 15:58N 29°56' W 090°04'0 0.0
2019-Apr-22 15:28N 29°56' W 090°04'0 0.0
2019-Apr-22 14:58N 29°56' W 090°04'0 0.0
2019-Apr-22 14:28N 29°56' W 090°04'0 0.0
2019-Apr-22 13:55N 29°56' W 090°04'0 0.0
2019-Apr-22 13:28N 29°56' W 090°04'0 0.0
2019-Apr-22 12:58N 29°56' W 090°04'0 0.0
2019-Apr-22 12:28N 29°56' W 090°04'0 0.0
2019-Apr-22 11:58N 29°56' W 090°04'0 0.1
2019-Apr-22 11:30N 29°56' W 090°04'2 4.4
2019-Apr-22 11:00N 29°57' W 090°01'510.8
2019-Apr-22 10:30N 29°55' W 089°55'3 5.9
2019-Apr-22 10:01N 29°53' W 089°57'5 9.8
2019-Apr-22 09:30N 29°48' W 090°00'510.7
2019-Apr-22 08:59N 29°43' W 089°59'511.4
2019-Apr-22 08:31N 29°38' W 089°56'711.2
2019-Apr-22 07:50N 29°35' W 089°48'512.4
2019-Apr-22 07:25N 29°31' W 089°44'60 9.3
2019-Apr-22 01:00N 28°36' W 089°18'9716.2 090 / 101021.010.8 22.018.918.0
2019-Apr-21 19:00N 27°06' W 088°36'2626.3 110 / 81024.410.8 25.022.026.0
2019-Apr-21 18:00N 26°42' W 088°24'8416.9 080 / 111024.610.8 26.023.127.0
2019-Apr-21 13:00N 25°24' W 087°48'16921.2 010 / 101020.110.8 24.021.025.0
2019-Apr-21 05:00N 22°48' W 086°36'9122.7 350 / 171022.310.8 24.021.028.0
2019-Apr-21 01:00N 21°18' W 086°24'4320.0 010 / 201018.110.8 24.021.028.0
2019-Apr-20 22:52N 20°44' W 086°52'719.9
2019-Apr-20 22:30N 20°38' W 086°56'917.5
2019-Apr-20 22:00N 20°30' W 086°59'2 2.7
2019-Apr-20 21:23N 20°29' W 086°59'0 0.0
2019-Apr-20 20:59N 20°29' W 086°59'0 0.0
2019-Apr-20 20:29N 20°29' W 086°59'0 0.0
2019-Apr-20 19:59N 20°29' W 086°59'0 0.0
2019-Apr-20 19:29N 20°29' W 086°59'0 0.0
2019-Apr-20 18:59N 20°29' W 086°59'0 0.0
2019-Apr-20 18:29N 20°29' W 086°59'0 0.0
2019-Apr-20 17:59N 20°29' W 086°59'0 0.0
2019-Apr-20 17:29N 20°29' W 086°59'0 0.0
2019-Apr-20 16:59N 20°29' W 086°59'0 0.0
2019-Apr-20 16:29N 20°29' W 086°59'0 0.0
2019-Apr-20 15:56N 20°29' W 086°59'0 0.0
2019-Apr-20 15:29N 20°29' W 086°59'613.0
2019-Apr-20 15:00N 20°24' W 086°54'6635.4 010 / 121019.810.8 26.023.126.0
2019-Apr-20 14:59N 20°29' W 086°59'0 0.0
2019-Apr-20 14:29N 20°29' W 086°59'0 0.0
2019-Apr-20 13:59N 20°29' W 086°59'0 0.0
2019-Apr-20 13:29N 20°29' W 086°59'0 0.0
2019-Apr-20 12:59N 20°29' W 086°59'0 0.0
2019-Apr-20 12:29N 20°29' W 086°59'0 0.0
2019-Apr-20 12:01N 20°29' W 086°59'0 0.1
2019-Apr-20 11:31N 20°29' W 086°59'3 5.9
2019-Apr-20 11:01N 20°31' W 086°60'510.2
2019-Apr-20 10:30N 20°36' W 086°57'7313.3
2019-Apr-20 05:00N 21°48' W 086°42'6521.8 340 / 161020.510.8 24.021.026.0
2019-Apr-20 02:00N 22°30' W 087°36'14117.6 330 / 201016.610.8 23.019.926.0
2019-Apr-19 18:00N 24°42' W 088°30'7318.2 310 / 221016.910.8 22.018.926.0
2019-Apr-19 14:00N 25°54' W 088°42'14117.6 300 / 351012.010.8 21.017.825.0
2019-Apr-19 06:00N 28°12' W 089°12'5413.5 270 / 291009.710.8 21.019.423.0
2019-Apr-19 02:00N 29°06' W 089°12'4716.7 200 / 251006.310.8 21.019.416.0
2019-Apr-18 23:10N 29°37' W 089°53'315.2
2019-Apr-18 23:00N 29°38' W 089°56'714.4
2019-Apr-18 22:30N 29°44' W 090°00'713.2
2019-Apr-18 22:00N 29°51' W 089°59'5 9.4
2019-Apr-18 21:30N 29°53' W 089°54'611.6
2019-Apr-18 21:00N 29°56' W 089°60'4 7.1
2019-Apr-18 20:30N 29°56' W 090°04'0 0.0
2019-Apr-18 19:58N 29°56' W 090°04'0 0.0
2019-Apr-18 19:28N 29°56' W 090°04'0 0.0
2019-Apr-18 18:58N 29°56' W 090°04'0 0.0
2019-Apr-18 18:28N 29°56' W 090°04'0 0.0
2019-Apr-18 17:52N 29°56' W 090°04'0 0.0
2019-Apr-18 17:28N 29°56' W 090°04'0 0.0
2019-Apr-18 16:58N 29°56' W 090°04'0 0.0
2019-Apr-18 16:25N 29°56' W 090°04'0 0.0
2019-Apr-18 15:58N 29°56' W 090°04'0 0.0
2019-Apr-18 15:28N 29°56' W 090°04'0 0.0
2019-Apr-18 14:58N 29°56' W 090°04'0 0.0
2019-Apr-18 14:28N 29°56' W 090°04'4 8.5
2019-Apr-18 14:00N 29°54' W 090°00'4126.2 120 / 131009.810.8 22.018.915.0
2019-Apr-18 13:58N 29°56' W 090°04'0 0.0
2019-Apr-18 13:28N 29°56' W 090°04'0 0.0
2019-Apr-18 12:58N 29°56' W 090°04'0 0.0
2019-Apr-18 12:28N 29°56' W 090°04'0 0.0
2019-Apr-18 11:58N 29°56' W 090°04'0 0.0
2019-Apr-18 11:28N 29°56' W 090°04'0 0.0
2019-Apr-18 10:58N 29°56' W 090°04'0 0.0
2019-Apr-18 10:28N 29°56' W 090°04'0 0.3
2019-Apr-18 10:00N 29°57' W 090°04'4 7.7
2019-Apr-18 09:30N 29°56' W 089°59'510.7
2019-Apr-18 09:00N 29°53' W 089°54'4 8.4
2019-Apr-18 08:31N 29°52' W 089°59'610.8
2019-Apr-18 08:00N 29°46' W 090°01'711.4
2019-Apr-18 07:23N 29°40' W 089°58'510.3
2019-Apr-18 06:57N 29°37' W 089°54'511.7
2019-Apr-18 06:30N 29°35' W 089°48'612.6
2019-Apr-18 06:00N 29°31' W 089°43'611.8
2019-Apr-18 05:30N 29°27' W 089°37'510.3
2019-Apr-18 05:00N 29°23' W 089°35'611.6
2019-Apr-18 04:30N 29°21' W 089°29'2710.8
2019-Apr-18 02:00N 28°54' W 089°24'11414.3 090 / 151014.910.8 24.021.015.0
2019-Apr-17 18:00N 27°00' W 089°12'1818.0 130 / 181019.610.8 24.021.025.0
2019-Apr-17 17:00N 26°42' W 089°12'6622.0 130 / 201020.110.8 24.021.025.0
2019-Apr-17 14:00N 25°36' W 089°12'15016.7 120 / 251016.210.8 23.019.927.0
2019-Apr-17 05:00N 23°06' W 089°18'6616.6 090 / 251019.910.8 24.021.026.0
2019-Apr-17 01:00N 22°00' W 089°24'1333.9 090 / 301015.110.8 24.021.026.0
2019-Apr-17 00:36N 21°50' W 089°33'116.3
2019-Apr-17 00:30N 21°48' W 089°34'816.1
2019-Apr-17 00:00N 21°41' W 089°36'815.9
2019-Apr-16 23:30N 21°33' W 089°39'713.3
2019-Apr-16 23:01N 21°27' W 089°42'611.0
2019-Apr-16 22:31N 21°21' W 089°41'1 2.2
2019-Apr-16 21:59N 21°21' W 089°41'0 0.0
2019-Apr-16 21:29N 21°21' W 089°41'0 0.0
2019-Apr-16 20:59N 21°21' W 089°41'0 0.0
2019-Apr-16 20:20N 21°21' W 089°41'0 0.0
2019-Apr-16 19:50N 21°21' W 089°41'0 0.0
2019-Apr-16 19:17N 21°21' W 089°41'0 0.0
2019-Apr-16 18:47N 21°21' W 089°41'0 0.0
2019-Apr-16 18:26N 21°21' W 089°41'0 0.0
2019-Apr-16 17:59N 21°21' W 089°41'0 0.0
2019-Apr-16 17:29N 21°21' W 089°41'0 0.0
2019-Apr-16 16:59N 21°21' W 089°41'0 0.0
2019-Apr-16 16:29N 21°21' W 089°41'0 0.0
2019-Apr-16 15:59N 21°21' W 089°41'0 0.0
2019-Apr-16 15:29N 21°21' W 089°41'0 0.0
2019-Apr-16 14:59N 21°21' W 089°41'0 0.0
2019-Apr-16 14:29N 21°21' W 089°41'510.0
2019-Apr-16 14:00N 21°18' W 089°36'5709.4 090 / 181017.910.8 24.021.026.0
2019-Apr-16 13:59N 21°21' W 089°41'0 0.3
2019-Apr-16 13:30N 21°21' W 089°41'3 6.8
2019-Apr-16 13:00N 21°24' W 089°41'510.4
2019-Apr-16 12:30N 21°29' W 089°39'713.5
2019-Apr-16 12:01N 21°32' W 089°33'816.7
2019-Apr-16 11:30N 21°35' W 089°25'11417.5
2019-Apr-16 05:00N 21°54' W 087°24'7017.5 040 / 221018.710.8 24.021.025.0
2019-Apr-16 01:00N 21°12' W 086°24'4026.7 090 / 91016.7 5.4 24.022.526.0
2019-Apr-15 23:30N 20°42' W 086°53'1020.9
2019-Apr-15 23:00N 20°34' W 086°59'510.5
2019-Apr-15 22:30N 20°29' W 086°59'0 0.0
2019-Apr-15 22:00N 20°29' W 086°59'0 0.0
2019-Apr-15 21:30N 20°29' W 086°59'0 0.0
2019-Apr-15 21:00N 20°29' W 086°59'0 0.0
2019-Apr-15 20:30N 20°29' W 086°59'0 0.0
2019-Apr-15 20:00N 20°29' W 086°59'0 0.0
2019-Apr-15 19:30N 20°29' W 086°59'0 0.0
2019-Apr-15 19:00N 20°29' W 086°59'0 0.0
2019-Apr-15 18:30N 20°29' W 086°59'0 0.0
2019-Apr-15 18:00N 20°29' W 086°59'0 0.0
2019-Apr-15 17:30N 20°29' W 086°59'0 0.0
2019-Apr-15 17:00N 20°29' W 086°59'0 0.0
2019-Apr-15 16:30N 20°29' W 086°59'0 0.0
2019-Apr-15 16:00N 20°29' W 086°59'0 0.0
2019-Apr-15 15:30N 20°29' W 086°59'0 0.0
2019-Apr-15 15:00N 20°29' W 086°59'0 0.0
2019-Apr-15 14:30N 20°29' W 086°59'0 0.0
2019-Apr-15 14:00N 20°29' W 086°59'0 0.0
2019-Apr-15 13:30N 20°29' W 086°59'0 0.0
2019-Apr-15 13:00N 20°29' W 086°59'0 0.0
2019-Apr-15 12:30N 20°29' W 086°59'0 0.4
2019-Apr-15 12:01N 20°29' W 086°59'3 5.8
2019-Apr-15 11:30N 20°32' W 086°59'710.8
2019-Apr-15 10:52N 20°38' W 086°55'7114.5
2019-Apr-15 06:00N 21°48' W 086°48'5517.9 040 / 121018.110.8 24.021.025.0
2019-Apr-15 02:56N 22°26' W 087°30'918.9
2019-Apr-15 02:28N 22°32' W 087°38'918.9
2019-Apr-15 02:00N 22°37' W 087°45'3188.2
2019-Apr-15 02:00N 22°36' W 087°42'1325.4 360 / 301013.710.8 24.021.026.0
2019-Apr-15 01:29N 22°43' W 087°54'918.9
2019-Apr-15 01:00N 22°48' W 088°02'1018.5
2019-Apr-15 00:28N 22°54' W 088°10'1219.3
2019-Apr-14 23:51N 23°06' W 088°12'719.4
2019-Apr-14 23:30N 23°13' W 088°14'1019.4
2019-Apr-14 22:58N 23°23' W 088°16'  

Dump ship's entire track history